Time;durP1;ratioP1;P1;durP2;ratioP2;P2;SDS_P1;SDS_P2;PMS_P1;PMS_P2;Temp;Humidity;BMP_temperature;BMP_pressure;BME280_temperature;BME280_humidity;BME280_pressure;Samples;Min_cycle;Max_cycle;Signal;HPM_P1;HPM_P2
2021/11/08 00:00:15;;;;;;;;;;;9.20;99.90;;;;;;4950845;29;19942;-92
2021/11/08 00:02:41;;;;;;;;;;;9.20;99.90;;;;;;4953351;28;19911;-85
2021/11/08 00:05:07;;;;;;;;;;;9.20;99.90;;;;;;4953576;28;19926;-86
2021/11/08 00:07:33;;;;;;;;;;;9.30;99.90;;;;;;4953036;28;20281;-86
2021/11/08 00:09:59;;;;;;;;;;;9.20;99.90;;;;;;4953249;28;19914;-86
2021/11/08 00:12:24;;;;;;;;;;;9.20;99.90;;;;;;4968081;28;19957;-86
2021/11/08 00:14:54;;;;;;;;;;;9.20;99.90;;;;;;4952150;29;19910;-86
2021/11/08 00:20:06;;;;;;;;;;;9.10;99.90;;;;;;4952955;29;19911;-86
2021/11/08 00:22:35;;;;;;;;;;;9.00;99.90;;;;;;4952938;28;20398;-86
2021/11/08 00:25:02;;;;;;;;;;;8.90;99.90;;;;;;4952840;28;19915;-87
2021/11/08 00:27:28;;;;;;;;;;;8.90;99.90;;;;;;4952430;28;19926;-86
2021/11/08 00:29:53;;;;;;;;;;;9.00;99.90;;;;;;4967487;28;19911;-86
2021/11/08 00:32:19;;;;;;;;;;;9.00;99.90;;;;;;4950823;29;19922;-86
2021/11/08 00:34:44;;;;;;;;;;;9.00;99.90;;;;;;4952597;28;19914;-86
2021/11/08 00:37:10;;;;;;;;;;;9.00;99.90;;;;;;4951392;28;19911;-86
2021/11/08 00:39:36;;;;;;;;;;;9.00;99.90;;;;;;4951928;28;19966;-85
2021/11/08 00:42:02;;;;;;;;;;;9.00;99.90;;;;;;4967187;28;19917;-87
2021/11/08 00:44:28;;;;;;;;;;;8.90;99.90;;;;;;4952310;28;20499;-86
2021/11/08 00:46:56;;;;;;;;;;;9.00;99.90;;;;;;4952158;28;19949;-86
2021/11/08 00:49:23;;;;;;;;;;;9.00;99.90;;;;;;4952569;29;19916;-86
2021/11/08 00:51:48;;;;;;;;;;;9.00;99.90;;;;;;4967148;28;19914;-86
2021/11/08 00:54:15;;;;;;;;;;;8.90;99.90;;;;;;4952218;29;19915;-86
2021/11/08 00:56:42;;;;;;;;;;;8.80;99.90;;;;;;4952494;28;19935;-85
2021/11/08 00:59:08;;;;;;;;;;;8.80;99.90;;;;;;4951126;29;19914;-85
2021/11/08 01:01:35;;;;;;;;;;;8.80;99.90;;;;;;4952209;28;20013;-86
2021/11/08 01:04:01;;;;;;;;;;;8.90;99.90;;;;;;4952126;28;20276;-86
2021/11/08 01:06:26;;;;;;;;;;;9.00;99.90;;;;;;4952059;28;20005;-86
2021/11/08 01:08:52;;;;;;;;;;;9.10;99.90;;;;;;4952238;28;19914;-85
2021/11/08 01:11:18;;;;;;;;;;;9.10;99.90;;;;;;4967015;28;20305;-86
2021/11/08 01:13:44;;;;;;;;;;;9.10;99.90;;;;;;4950904;28;19917;-86
2021/11/08 01:16:10;;;;;;;;;;;9.10;99.90;;;;;;4966837;28;20327;-85
2021/11/08 01:18:36;;;;;;;;;;;9.20;99.90;;;;;;4952269;28;19911;-86
2021/11/08 01:21:03;;;;;;;;;;;9.10;99.90;;;;;;4965860;28;19957;-86
2021/11/08 01:23:29;;;;;;;;;;;9.10;99.90;;;;;;4951846;28;20422;-86
2021/11/08 01:26:02;;;;;;;;;;;9.10;99.90;;;;;;4952008;28;19910;-90
2021/11/08 01:28:33;;;;;;;;;;;9.10;99.90;;;;;;4952195;28;19936;-86
2021/11/08 01:30:59;;;;;;;;;;;9.10;99.90;;;;;;4950733;29;19914;-86
2021/11/08 01:33:26;;;;;;;;;;;9.20;99.90;;;;;;4950719;29;19944;-86
2021/11/08 01:36:27;;;;;;;;;;;9.30;99.90;;;;;;4951949;28;19965;-86
2021/11/08 01:41:10;;;;;;;;;;;9.30;99.90;;;;;;4951892;28;19918;-86
2021/11/08 01:43:36;;;;;;;;;;;9.30;99.90;;;;;;4951766;28;19914;-86
2021/11/08 01:46:02;;;;;;;;;;;9.20;99.90;;;;;;4951833;29;19926;-85
2021/11/08 01:48:28;;;;;;;;;;;9.30;99.90;;;;;;4951832;28;19919;-85
2021/11/08 01:50:54;;;;;;;;;;;9.30;99.90;;;;;;4952040;28;19918;-87
2021/11/08 01:53:21;;;;;;;;;;;9.20;99.90;;;;;;4954394;28;19917;-86
2021/11/08 01:55:47;;;;;;;;;;;9.30;99.90;;;;;;4962595;28;19911;-94
2021/11/08 01:58:13;;;;;;;;;;;9.30;99.90;;;;;;4949457;29;19911;-85
2021/11/08 02:00:39;;;;;;;;;;;9.40;99.90;;;;;;4969801;28;20046;-89
2021/11/08 02:03:04;;;;;;;;;;;9.40;99.90;;;;;;4955356;29;19910;-86
2021/11/08 02:05:30;;;;;;;;;;;9.40;99.90;;;;;;4955094;29;20241;-86
2021/11/08 02:07:55;;;;;;;;;;;9.40;99.90;;;;;;4955276;28;20006;-86
2021/11/08 02:10:21;;;;;;;;;;;9.40;99.90;;;;;;4955315;28;19911;-85
2021/11/08 02:12:47;;;;;;;;;;;9.30;99.90;;;;;;4955085;29;20370;-86
2021/11/08 02:15:18;;;;;;;;;;;9.30;99.90;;;;;;4954952;28;19933;-85
2021/11/08 02:17:47;;;;;;;;;;;9.30;99.90;;;;;;4955269;28;19985;-85
2021/11/08 02:20:14;;;;;;;;;;;9.30;99.90;;;;;;4954960;28;19911;-86
2021/11/08 02:22:39;;;;;;;;;;;9.30;99.90;;;;;;4954864;28;19911;-86
2021/11/08 02:25:05;;;;;;;;;;;9.30;99.90;;;;;;4954997;28;19917;-85
2021/11/08 02:27:31;;;;;;;;;;;9.20;99.90;;;;;;4954686;28;20067;-86
2021/11/08 02:29:57;;;;;;;;;;;9.10;99.90;;;;;;4957557;28;19922;-93
2021/11/08 02:32:22;;;;;;;;;;;9.10;99.90;;;;;;4954937;28;19922;-89
2021/11/08 02:34:48;;;;;;;;;;;9.10;99.90;;;;;;4954763;28;19993;-85
2021/11/08 02:37:14;;;;;;;;;;;9.10;99.90;;;;;;4954850;28;19914;-89
2021/11/08 02:39:42;;;;;;;;;;;9.00;99.90;;;;;;4954935;28;19911;-92
2021/11/08 02:42:08;;;;;;;;;;;9.00;99.90;;;;;;4954738;28;19911;-87
2021/11/08 02:44:33;;;;;;;;;;;8.90;99.90;;;;;;4954996;28;19917;-85
2021/11/08 02:46:59;;;;;;;;;;;8.80;99.90;;;;;;4954291;29;19914;-85
2021/11/08 02:49:25;;;;;;;;;;;8.80;99.90;;;;;;4954579;28;19911;-85
2021/11/08 02:52:00;;;;;;;;;;;8.80;99.90;;;;;;4954839;28;19956;-86
2021/11/08 02:54:29;;;;;;;;;;;8.80;99.90;;;;;;4954796;28;19910;-92
2021/11/08 02:56:56;;;;;;;;;;;8.80;99.90;;;;;;4954533;28;19917;-85
2021/11/08 02:59:22;;;;;;;;;;;8.70;99.90;;;;;;4966830;28;19906;-89
2021/11/08 03:01:49;;;;;;;;;;;8.70;99.90;;;;;;4954832;28;19911;-92
2021/11/08 03:04:21;;;;;;;;;;;8.60;99.90;;;;;;4954400;28;20017;-89
2021/11/08 03:06:47;;;;;;;;;;;8.60;99.90;;;;;;4951822;28;19982;-85
2021/11/08 03:09:14;;;;;;;;;;;8.80;99.90;;;;;;4969230;28;20013;-92
2021/11/08 03:11:40;;;;;;;;;;;8.90;99.90;;;;;;4954320;28;19911;-86
2021/11/08 03:14:07;;;;;;;;;;;8.90;99.90;;;;;;4954333;28;19993;-92
2021/11/08 03:16:46;;;;;;;;;;;9.00;99.90;;;;;;4954333;28;20380;-86
2021/11/08 03:21:57;;;;;;;;;;;9.20;99.90;;;;;;4953202;28;19975;-85
2021/11/08 03:24:39;;;;;;;;;;;9.20;99.90;;;;;;4953076;28;19918;-86
2021/11/08 03:27:25;;;;;;;;;;;9.10;99.90;;;;;;4953168;28;19974;-85
2021/11/08 03:29:51;;;;;;;;;;;9.10;99.90;;;;;;4951470;29;20022;-86
2021/11/08 03:32:18;;;;;;;;;;;9.20;99.90;;;;;;4953255;28;19933;-92
2021/11/08 03:34:53;;;;;;;;;;;9.20;99.90;;;;;;4954400;28;20014;-85
2021/11/08 03:37:19;;;;;;;;;;;9.20;99.90;;;;;;4953433;28;19914;-86
2021/11/08 03:39:45;;;;;;;;;;;9.20;99.90;;;;;;4969079;28;19910;-85
2021/11/08 03:42:10;;;;;;;;;;;9.20;99.90;;;;;;4953890;28;19910;-88
2021/11/08 03:44:36;;;;;;;;;;;9.20;99.90;;;;;;4952966;29;19918;-86
2021/11/08 03:47:02;;;;;;;;;;;9.10;99.90;;;;;;4953029;28;20257;-85
2021/11/08 03:49:27;;;;;;;;;;;9.10;99.90;;;;;;4953025;28;20371;-85
2021/11/08 03:51:53;;;;;;;;;;;9.10;99.90;;;;;;4968097;28;19965;-85
2021/11/08 03:54:19;;;;;;;;;;;9.10;99.90;;;;;;4953314;28;19918;-86
2021/11/08 03:56:44;;;;;;;;;;;9.00;99.90;;;;;;4953464;28;19954;-85
2021/11/08 03:59:10;;;;;;;;;;;9.10;99.90;;;;;;4952829;28;20390;-86
2021/11/08 04:01:36;;;;;;;;;;;9.10;99.90;;;;;;4952852;29;19911;-85
2021/11/08 04:04:05;;;;;;;;;;;9.10;99.90;;;;;;4953109;28;19957;-86
2021/11/08 04:06:31;;;;;;;;;;;9.10;99.90;;;;;;4952936;28;19910;-86
2021/11/08 04:08:59;;;;;;;;;;;9.00;99.90;;;;;;4953238;28;20066;-85
2021/11/08 04:11:25;;;;;;;;;;;9.00;99.90;;;;;;4953039;28;20315;-86
2021/11/08 04:13:52;;;;;;;;;;;9.00;99.90;;;;;;4951730;29;20280;-86
2021/11/08 04:16:19;;;;;;;;;;;8.90;99.90;;;;;;4952098;28;20306;-86
2021/11/08 04:18:50;;;;;;;;;;;8.90;99.90;;;;;;4952790;28;20018;-86
2021/11/08 04:21:15;;;;;;;;;;;8.80;99.90;;;;;;4967502;28;20017;-86
2021/11/08 04:23:41;;;;;;;;;;;8.90;99.90;;;;;;4952502;29;19982;-86
2021/11/08 04:26:07;;;;;;;;;;;8.70;99.90;;;;;;4952624;28;19911;-86
2021/11/08 04:28:34;;;;;;;;;;;8.70;99.90;;;;;;4967260;28;19925;-86
2021/11/08 04:31:00;;;;;;;;;;;8.70;99.90;;;;;;4952632;29;20001;-86
2021/11/08 04:33:36;;;;;;;;;;;8.70;99.90;;;;;;4952353;28;20452;-86
2021/11/08 04:41:25;;;;;;;;;;;8.60;99.90;;;;;;4952300;28;19911;-86
2021/11/08 05:32:15;;;;;;;;;;;8.40;99.90;;;;;;4955532;29;20295;-86
2021/11/08 05:34:41;;;;;;;;;;;8.40;99.90;;;;;;4955719;28;19915;-85
2021/11/08 05:37:08;;;;;;;;;;;8.40;99.90;;;;;;4955393;28;19918;-86
2021/11/08 05:39:50;;;;;;;;;;;8.30;99.90;;;;;;4954206;28;19910;-86
2021/11/08 05:42:16;;;;;;;;;;;8.40;99.90;;;;;;4955855;28;19965;-86
2021/11/08 05:44:42;;;;;;;;;;;8.40;99.90;;;;;;4955544;28;19998;-86
2021/11/08 05:47:08;;;;;;;;;;;8.40;99.90;;;;;;4955925;28;19915;-86
2021/11/08 05:49:34;;;;;;;;;;;8.30;99.90;;;;;;4955528;28;19946;-86
2021/11/08 05:52:00;;;;;;;;;;;8.30;99.90;;;;;;4953992;29;19958;-86
2021/11/08 05:54:25;;;;;;;;;;;8.30;99.90;;;;;;4955148;28;19954;-85
2021/11/08 06:51:12;;;;;;;;;;;7.80;99.90;;;;;;4952606;29;19917;-90
2021/11/08 06:53:38;;;;;;;;;;;7.80;99.90;;;;;;4954739;28;19911;-89
2021/11/08 06:56:04;;;;;;;;;;;7.80;99.90;;;;;;4954450;28;20371;-92
2021/11/08 06:58:30;;;;;;;;;;;7.80;99.90;;;;;;4954777;29;19910;-91
2021/11/08 07:00:56;;;;;;;;;;;7.80;99.90;;;;;;4954153;28;19997;-90
2021/11/08 07:03:22;;;;;;;;;;;7.80;99.90;;;;;;4969139;28;20387;-91
2021/11/08 07:05:47;;;;;;;;;;;7.80;99.90;;;;;;4969086;28;19962;-92
2021/11/08 07:08:13;;;;;;;;;;;7.80;99.90;;;;;;4953776;29;20046;-92
2021/11/08 07:10:39;;;;;;;;;;;7.90;99.90;;;;;;4968907;28;19958;-91
2021/11/08 07:13:05;;;;;;;;;;;7.90;99.90;;;;;;4954014;28;20001;-91
2021/11/08 07:15:30;;;;;;;;;;;7.90;99.90;;;;;;4968977;28;19914;-89
2021/11/08 07:17:56;;;;;;;;;;;7.90;99.90;;;;;;4954946;29;19917;-92
2021/11/08 07:20:23;;;;;;;;;;;7.90;99.90;;;;;;4954585;29;19910;-91
2021/11/08 07:22:48;;;;;;;;;;;7.90;99.90;;;;;;4954461;29;19917;-89
2021/11/08 07:25:14;;;;;;;;;;;7.90;99.90;;;;;;4954468;29;19910;-90
2021/11/08 07:27:40;;;;;;;;;;;7.90;99.90;;;;;;4954095;29;19919;-92
2021/11/08 07:30:07;;;;;;;;;;;7.90;99.90;;;;;;4969157;28;19917;-91
2021/11/08 07:32:32;;;;;;;;;;;7.90;99.90;;;;;;4953942;28;19965;-89
2021/11/08 07:34:58;;;;;;;;;;;7.90;99.90;;;;;;4954476;28;20013;-89
2021/11/08 07:37:24;;;;;;;;;;;7.90;99.90;;;;;;4954063;29;19914;-92
2021/11/08 07:39:50;;;;;;;;;;;7.90;99.90;;;;;;4952864;29;19965;-89
2021/11/08 07:42:16;;;;;;;;;;;7.90;99.90;;;;;;4968734;28;20001;-90
2021/11/08 07:44:42;;;;;;;;;;;7.90;99.90;;;;;;4954054;28;19944;-90
2021/11/08 07:47:08;;;;;;;;;;;7.90;99.90;;;;;;4968945;28;20375;-90
2021/11/08 07:49:33;;;;;;;;;;;7.80;99.90;;;;;;4952094;28;20413;-90
2021/11/08 07:51:59;;;;;;;;;;;7.90;99.90;;;;;;4952564;29;20548;-91
2021/11/08 07:54:24;;;;;;;;;;;7.90;99.90;;;;;;4952479;29;19915;-91
2021/11/08 07:56:50;;;;;;;;;;;8.00;99.90;;;;;;4968844;28;19926;-89
2021/11/08 07:59:16;;;;;;;;;;;7.90;99.90;;;;;;4952366;29;20391;-89
2021/11/08 08:01:42;;;;;;;;;;;7.90;99.90;;;;;;4952654;29;20005;-90
2021/11/08 08:04:08;;;;;;;;;;;7.90;99.90;;;;;;4952583;29;19961;-93
2021/11/08 08:06:34;;;;;;;;;;;7.90;99.90;;;;;;4952519;29;19918;-90
2021/11/08 08:08:59;;;;;;;;;;;8.00;99.90;;;;;;4953951;28;19919;-90
2021/11/08 08:11:25;;;;;;;;;;;8.10;99.90;;;;;;4953805;28;20141;-93
2021/11/08 08:13:51;;;;;;;;;;;8.20;99.90;;;;;;4969006;28;19910;-91
2021/11/08 08:16:18;;;;;;;;;;;8.40;99.90;;;;;;4968485;28;19946;-90
2021/11/08 08:18:44;;;;;;;;;;;8.50;99.90;;;;;;4954063;28;20016;-91
2021/11/08 08:21:10;;;;;;;;;;;8.60;99.90;;;;;;4953522;28;19957;-89
2021/11/08 08:23:36;;;;;;;;;;;8.60;99.90;;;;;;4952628;29;19949;-90
2021/11/08 08:26:02;;;;;;;;;;;8.70;99.90;;;;;;4952647;29;19911;-89
2021/11/08 08:28:28;;;;;;;;;;;8.70;99.90;;;;;;4953269;28;20302;-90
2021/11/08 08:30:54;;;;;;;;;;;8.70;99.90;;;;;;4969275;28;19914;-90
2021/11/08 08:33:19;;;;;;;;;;;8.80;99.90;;;;;;4953975;28;19926;-90
2021/11/08 08:35:46;;;;;;;;;;;9.00;99.90;;;;;;4953699;28;19910;-90
2021/11/08 08:38:14;;;;;;;;;;;9.10;99.90;;;;;;4956244;28;19910;-91
2021/11/08 08:40:40;;;;;;;;;;;9.10;99.90;;;;;;4963490;29;19949;-91
2021/11/08 08:43:05;;;;;;;;;;;9.20;99.90;;;;;;4977024;28;19933;-91
2021/11/08 08:45:32;;;;;;;;;;;9.20;99.90;;;;;;4980010;28;19942;-90
2021/11/08 08:47:58;;;;;;;;;;;9.10;99.90;;;;;;4954399;29;19919;-90
2021/11/08 08:50:24;;;;;;;;;;;9.20;99.90;;;;;;4953283;28;20256;-91
2021/11/08 08:52:50;;;;;;;;;;;9.20;99.90;;;;;;4951540;28;19915;-90
2021/11/08 08:55:16;;;;;;;;;;;9.20;99.90;;;;;;4960509;28;19911;-90
2021/11/08 08:57:42;;;;;;;;;;;9.30;99.90;;;;;;4951737;29;19981;-93
2021/11/08 09:00:09;;;;;;;;;;;9.30;99.90;;;;;;4953308;28;19953;-91
2021/11/08 09:02:34;;;;;;;;;;;9.30;99.90;;;;;;4951648;29;20023;-92
2021/11/08 09:05:03;;;;;;;;;;;9.50;99.90;;;;;;4953192;29;19924;-92
2021/11/08 09:07:30;;;;;;;;;;;9.50;99.90;;;;;;4952083;29;20418;-91
2021/11/08 09:09:56;;;;;;;;;;;9.60;99.90;;;;;;4952109;29;19911;-91
2021/11/08 09:12:22;;;;;;;;;;;9.80;99.90;;;;;;4965020;29;19922;-92
2021/11/08 09:14:48;;;;;;;;;;;9.90;99.90;;;;;;4963746;29;19911;-92
2021/11/08 09:17:13;;;;;;;;;;;9.90;99.90;;;;;;4954919;29;19911;-91
2021/11/08 09:19:39;;;;;;;;;;;10.10;99.90;;;;;;4954736;28;19981;-93
2021/11/08 09:22:05;;;;;;;;;;;10.20;99.90;;;;;;4957955;29;19910;-91
2021/11/08 09:24:31;;;;;;;;;;;10.30;99.90;;;;;;4974058;28;19911;-90
2021/11/08 09:26:56;;;;;;;;;;;10.30;99.90;;;;;;4973753;29;19911;-91
2021/11/08 09:29:22;;;;;;;;;;;10.30;99.90;;;;;;4973469;28;20024;-90
2021/11/08 09:31:48;;;;;;;;;;;10.40;99.90;;;;;;4982233;28;19903;-91
2021/11/08 09:34:16;;;;;;;;;;;10.40;99.90;;;;;;4973617;29;19921;-91
2021/11/08 09:36:42;;;;;;;;;;;10.40;99.90;;;;;;4988360;28;19922;-91
2021/11/08 09:39:13;;;;;;;;;;;10.50;99.90;;;;;;4972283;28;19934;-91
2021/11/08 09:41:40;;;;;;;;;;;10.60;99.90;;;;;;4969237;28;19915;-92
2021/11/08 09:44:07;;;;;;;;;;;10.70;99.90;;;;;;4970426;28;19910;-93
2021/11/08 09:46:33;;;;;;;;;;;10.70;99.90;;;;;;4972075;29;19910;-90
2021/11/08 09:49:00;;;;;;;;;;;10.80;99.90;;;;;;4970546;29;19923;-92
2021/11/08 09:51:26;;;;;;;;;;;10.80;99.90;;;;;;4951695;29;19965;-90
2021/11/08 09:53:52;;;;;;;;;;;10.80;99.90;;;;;;4953072;29;19910;-90
2021/11/08 09:56:18;;;;;;;;;;;10.90;99.90;;;;;;4952288;29;19911;-91
2021/11/08 09:58:44;;;;;;;;;;;11.00;99.90;;;;;;4968561;28;19953;-91
2021/11/08 10:01:15;;;;;;;;;;;11.10;99.90;;;;;;4958394;29;20264;-92
2021/11/08 10:03:44;;;;;;;;;;;11.20;99.90;;;;;;4952813;28;19917;-94
2021/11/08 10:06:10;;;;;;;;;;;11.20;99.90;;;;;;4951334;29;20268;-91
2021/11/08 10:08:37;;;;;;;;;;;11.30;99.90;;;;;;4951395;29;19918;-92
2021/11/08 10:11:05;;;;;;;;;;;11.40;99.90;;;;;;4952790;28;19926;-91
2021/11/08 10:13:31;;;;;;;;;;;11.50;99.90;;;;;;4952527;28;19911;-93
2021/11/08 10:16:02;;;;;;;;;;;11.50;99.90;;;;;;4959229;28;19911;-92
2021/11/08 10:18:27;;;;;;;;;;;11.50;99.90;;;;;;4954959;29;19911;-91
2021/11/08 10:20:55;;;;;;;;;;;11.60;99.90;;;;;;4971247;28;19921;-91
2021/11/08 10:23:23;;;;;;;;;;;11.70;99.90;;;;;;4970934;28;20422;-92
2021/11/08 10:25:49;;;;;;;;;;;11.70;99.90;;;;;;4970987;28;19911;-92
2021/11/08 10:28:17;;;;;;;;;;;11.80;99.90;;;;;;4971026;28;20335;-92
2021/11/08 10:30:43;;;;;;;;;;;11.90;99.90;;;;;;4961041;28;19918;-93
2021/11/08 10:33:09;;;;;;;;;;;12.10;99.90;;;;;;4966558;28;20284;-92
2021/11/08 10:35:39;;;;;;;;;;;12.20;99.90;;;;;;4970738;28;19934;-91
2021/11/08 10:38:08;;;;;;;;;;;12.20;99.90;;;;;;4955523;28;19911;-91
2021/11/08 10:40:38;;;;;;;;;;;12.30;99.90;;;;;;4956032;28;19911;-92
2021/11/08 10:43:04;;;;;;;;;;;12.40;99.90;;;;;;4970650;28;19965;-92
2021/11/08 10:45:29;;;;;;;;;;;12.50;99.90;;;;;;4970415;28;19911;-92
2021/11/08 10:48:00;;;;;;;;;;;12.60;99.90;;;;;;4955619;28;20013;-91
2021/11/08 10:50:27;;;;;;;;;;;12.60;99.90;;;;;;4955199;29;19921;-93
2021/11/08 10:53:02;;;;;;;;;;;12.70;99.90;;;;;;4970114;28;20358;-91
2021/11/08 10:55:31;;;;;;;;;;;12.80;99.90;;;;;;4970219;28;19997;-92
2021/11/08 10:58:10;;;;;;;;;;;12.90;99.90;;;;;;4969910;28;20394;-91
2021/11/08 11:00:52;;;;;;;;;;;12.90;99.90;;;;;;4955679;28;19911;-93
2021/11/08 11:03:18;;;;;;;;;;;13.00;99.90;;;;;;4970788;28;20307;-91
2021/11/08 11:05:44;;;;;;;;;;;13.10;99.90;;;;;;4971110;28;20006;-91
2021/11/08 11:08:21;;;;;;;;;;;13.20;99.90;;;;;;4979591;28;19984;-94
2021/11/08 11:10:56;;;;;;;;;;;13.20;99.90;;;;;;4979750;28;20387;-93
2021/11/08 11:13:25;;;;;;;;;;;13.30;99.90;;;;;;4970606;28;19918;-92
2021/11/08 11:15:57;;;;;;;;;;;13.40;99.90;;;;;;4964366;28;19967;-92
2021/11/08 11:18:25;;;;;;;;;;;13.40;99.90;;;;;;4943797;28;19926;-92
2021/11/08 11:20:56;;;;;;;;;;;13.40;99.90;;;;;;4964845;28;19965;-92
2021/11/08 11:23:31;;;;;;;;;;;13.40;99.90;;;;;;4969568;28;20481;-93
2021/11/08 11:26:02;;;;;;;;;;;13.50;99.90;;;;;;4969780;28;20379;-93
2021/11/08 11:28:35;;;;;;;;;;;13.60;99.90;;;;;;4969326;28;19980;-93
2021/11/08 11:31:37;;;;;;;;;;;13.70;99.90;;;;;;4969904;28;19918;-92
2021/11/08 11:34:13;;;;;;;;;;;14.00;99.90;;;;;;4968381;28;19923;-93
2021/11/08 11:43:16;;;;;;;;;;;;;;;;;;;;;
2021/11/08 11:55:21;;;;;;;;;;;14.30;99.90;;;;;;4919542;28;19953;-93
2021/11/08 11:58:20;;;;;;;;;;;;;;;;;;;;;
2021/11/08 12:01:02;;;;;;;;;;;;;;;;;;;;;
2021/11/08 12:03:44;;;;;;;;;;;14.60;99.90;;;;;;4944999;29;20031;-91
2021/11/08 12:06:28;;;;;;;;;;;14.80;99.90;;;;;;4968663;28;20371;-94
2021/11/08 12:09:03;;;;;;;;;;;15.00;99.90;;;;;;4970038;28;20408;-91
2021/11/08 12:11:51;;;;;;;;;;;15.10;99.90;;;;;;4944521;28;20005;-91
2021/11/08 12:14:30;;;;;;;;;;;15.30;99.90;;;;;;4968252;28;19911;-91
2021/11/08 12:17:01;;;;;;;;;;;15.60;99.90;;;;;;4953071;29;19917;-92
2021/11/08 12:19:38;;;;;;;;;;;;;;;;;;;;;
2021/11/08 12:22:19;;;;;;;;;;;16.00;99.90;;;;;;4950574;29;19917;-92
2021/11/08 12:25:02;;;;;;;;;;;16.20;99.90;;;;;;4968208;28;19911;-93
2021/11/08 12:27:39;;;;;;;;;;;16.30;99.90;;;;;;4968416;28;19987;-91
2021/11/08 12:33:32;;;;;;;;;;;16.10;99.90;;;;;;4933976;29;19946;-92
2021/11/08 12:39:29;;;;;;;;;;;;;;;;;;;;;
2021/11/08 12:42:08;;;;;;;;;;;14.70;99.90;;;;;;4941059;29;19910;-95
2021/11/08 12:44:51;;;;;;;;;;;14.30;99.90;;;;;;4968358;28;19911;-93
2021/11/08 12:47:17;;;;;;;;;;;14.20;99.90;;;;;;4968765;28;19918;-91
2021/11/08 12:49:58;;;;;;;;;;;14.20;99.90;;;;;;4968335;28;19993;-91
2021/11/08 12:52:47;;;;;;;;;;;;;;;;;;;;;
2021/11/08 12:55:18;;;;;;;;;;;14.50;99.90;;;;;;4953081;29;19932;-91
2021/11/08 12:58:02;;;;;;;;;;;14.70;99.90;;;;;;4968473;28;19910;-91
2021/11/08 13:00:37;;;;;;;;;;;15.10;99.90;;;;;;4968825;28;19967;-92
2021/11/08 13:03:15;;;;;;;;;;;15.30;99.90;;;;;;4987365;28;19899;-92
2021/11/08 13:05:45;;;;;;;;;;;15.50;99.90;;;;;;4972002;28;20251;-92
2021/11/08 13:08:20;;;;;;;;;;;15.30;99.90;;;;;;4967984;28;20375;-92
2021/11/08 13:10:59;;;;;;;;;;;15.10;99.90;;;;;;4968144;28;19910;-93
2021/11/08 13:13:35;;;;;;;;;;;14.70;99.90;;;;;;4968515;28;19914;-92
2021/11/08 13:16:10;;;;;;;;;;;14.50;99.90;;;;;;4956566;28;19910;-92
2021/11/08 13:18:40;;;;;;;;;;;14.40;99.90;;;;;;4968463;28;19911;-92
2021/11/08 13:21:06;;;;;;;;;;;14.40;99.90;;;;;;4968517;28;20455;-93
2021/11/08 13:23:34;;;;;;;;;;;14.70;99.90;;;;;;4956105;28;20001;-92
2021/11/08 13:26:02;;;;;;;;;;;15.10;99.90;;;;;;4952555;29;19910;-93
2021/11/08 13:28:32;;;;;;;;;;;15.30;99.90;;;;;;4967793;28;19925;-92
2021/11/08 13:31:08;;;;;;;;;;;15.20;99.90;;;;;;4968045;28;19918;-93
2021/11/08 13:33:46;;;;;;;;;;;15.00;99.90;;;;;;4967836;28;19922;-92
2021/11/08 13:36:14;;;;;;;;;;;14.60;99.90;;;;;;4967821;28;20276;-92
2021/11/08 13:38:55;;;;;;;;;;;14.60;99.90;;;;;;4953457;28;20037;-92
2021/11/08 13:41:25;;;;;;;;;;;14.80;99.90;;;;;;4967934;28;19918;-93
2021/11/08 13:44:02;;;;;;;;;;;15.00;99.90;;;;;;4968056;28;20410;-93
2021/11/08 13:46:34;;;;;;;;;;;15.10;99.90;;;;;;4967660;28;20295;-93
2021/11/08 13:49:18;;;;;;;;;;;;;;;;;;;;;
2021/11/08 13:51:55;;;;;;;;;;;14.70;99.90;;;;;;4942978;29;19910;-93
2021/11/08 13:54:34;;;;;;;;;;;14.50;99.90;;;;;;4972161;28;20334;-93
2021/11/08 13:57:07;;;;;;;;;;;14.30;99.90;;;;;;4972009;28;19942;-93
2021/11/08 13:59:42;;;;;;;;;;;14.30;99.90;;;;;;4971513;28;19910;-93
2021/11/08 14:02:27;;;;;;;;;;;14.40;99.90;;;;;;4971163;28;19911;-96
2021/11/08 14:07:46;;;;;;;;;;;14.80;99.90;;;;;;4952486;28;19959;-93
2021/11/08 14:10:17;;;;;;;;;;;15.10;99.90;;;;;;4953654;28;19911;-93
2021/11/08 14:12:50;;;;;;;;;;;15.30;99.90;;;;;;4962533;28;19960;-93
2021/11/08 14:15:30;;;;;;;;;;;15.40;99.90;;;;;;4971514;28;19910;-94
2021/11/08 14:18:18;;;;;;;;;;;;;;;;;;;;;
2021/11/08 14:21:15;;;;;;;;;;;15.30;99.90;;;;;;4941237;29;19910;-93
2021/11/08 14:24:09;;;;;;;;;;;15.20;99.90;;;;;;4971532;28;20387;-92
2021/11/08 14:27:11;;;;;;;;;;;;;;;;;;;;;
2021/11/08 14:29:52;;;;;;;;;;;15.40;99.90;;;;;;4956573;28;19919;-93
2021/11/08 14:32:31;;;;;;;;;;;15.70;99.90;;;;;;4970881;28;19923;-93
2021/11/08 14:35:15;;;;;;;;;;;;;;;;;;;;;
2021/11/08 14:40:37;;;;;;;;;;;16.20;99.90;;;;;;4956541;29;19917;-93
2021/11/08 14:43:24;;;;;;;;;;;15.90;99.90;;;;;;4971273;28;19918;-95
2021/11/08 14:46:29;;;;;;;;;;;;;;;;;;;;;
2021/11/08 14:49:08;;;;;;;;;;;15.20;99.90;;;;;;4942351;29;19918;-96
2021/11/08 14:51:53;;;;;;;;;;;15.00;99.90;;;;;;4968949;28;19966;-93
2021/11/08 14:54:38;;;;;;;;;;;;;;;;;;;;;
2021/11/08 14:57:24;;;;;;;;;;;;;;;;;;;;;
2021/11/08 15:13:53;;;;;;;;;;;;;;;;;;;;;
2021/11/08 15:26:22;;;;;;;;;;;14.90;99.90;;;;;;4783919;29;20358;-93
2021/11/08 15:29:23;;;;;;;;;;;;;;;;;;;;;
2021/11/08 15:32:21;;;;;;;;;;;15.00;99.90;;;;;;4851053;29;19932;-93
2021/11/08 15:38:25;;;;;;;;;;;15.00;99.90;;;;;;4954528;29;19989;-92
2021/11/08 15:41:09;;;;;;;;;;;15.00;99.90;;;;;;4923958;29;19911;-93
2021/11/08 15:43:38;;;;;;;;;;;15.10;99.90;;;;;;4952556;29;19998;-94
2021/11/08 15:46:14;;;;;;;;;;;15.00;99.90;;;;;;4968715;28;20054;-93
2021/11/08 15:49:08;;;;;;;;;;;14.90;99.90;;;;;;4968370;28;19929;-93
2021/11/08 15:51:41;;;;;;;;;;;14.70;99.90;;;;;;4943204;29;20446;-96
2021/11/08 15:54:16;;;;;;;;;;;14.50;99.90;;;;;;4968755;28;19910;-93
2021/11/08 15:56:54;;;;;;;;;;;14.50;99.90;;;;;;4952083;29;19911;-92
2021/11/08 16:00:06;;;;;;;;;;;14.20;99.90;;;;;;4952062;29;19910;-93
2021/11/08 16:02:51;;;;;;;;;;;14.10;99.90;;;;;;4952097;29;19934;-93
2021/11/08 16:05:33;;;;;;;;;;;14.00;99.90;;;;;;4947526;29;19942;-93
2021/11/08 16:08:13;;;;;;;;;;;14.00;99.90;;;;;;4952102;29;19926;-93
2021/11/08 16:11:02;;;;;;;;;;;14.10;99.90;;;;;;4967152;28;20284;-92
2021/11/08 16:13:48;;;;;;;;;;;;;;;;;;;;;
2021/11/08 16:16:48;;;;;;;;;;;14.10;99.90;;;;;;4953165;29;19911;-93
2021/11/08 16:19:42;;;;;;;;;;;13.90;99.90;;;;;;4941504;29;19914;-93
2021/11/08 16:23:14;;;;;;;;;;;13.80;99.90;;;;;;4951820;29;19910;-94
2021/11/08 16:26:11;;;;;;;;;;;;;;;;;;;;;
2021/11/08 16:29:02;;;;;;;;;;;13.60;99.90;;;;;;4952976;29;19919;-96
2021/11/08 16:31:50;;;;;;;;;;;13.50;99.90;;;;;;4951340;28;19911;-93
2021/11/08 16:34:22;;;;;;;;;;;13.50;99.90;;;;;;4929482;29;19923;-94
2021/11/08 16:37:14;;;;;;;;;;;13.40;99.90;;;;;;4928951;29;19919;-93
2021/11/08 16:42:47;;;;;;;;;;;13.10;99.90;;;;;;4907172;29;19911;-93
2021/11/08 16:45:36;;;;;;;;;;;13.00;99.90;;;;;;4929715;29;19919;-93
2021/11/08 16:50:57;;;;;;;;;;;12.70;99.90;;;;;;4913922;29;19911;-92
2021/11/08 16:53:27;;;;;;;;;;;12.70;99.90;;;;;;4941640;29;20010;-92
2021/11/08 16:55:58;;;;;;;;;;;12.60;99.90;;;;;;4930585;29;20349;-93
2021/11/08 17:04:33;;;;;;;;;;;12.40;99.90;;;;;;4955399;23;20158;-95
2021/11/08 17:15:20;;;;;;;;;;;12.20;99.90;;;;;;5895497;23;19926;-91
2021/11/08 17:18:21;;;;;;;;;;;;;;;;;;;;;
2021/11/08 17:35:10;;;;;;;;;;;;;;;;;;;;;
2021/11/08 17:37:39;;;;;;;;;;;11.90;99.90;;;;;;4878429;29;19912;-94
2021/11/08 17:40:06;;;;;;;;;;;11.90;99.90;;;;;;4910201;29;19911;-89
2021/11/08 17:42:32;;;;;;;;;;;11.80;99.90;;;;;;4928064;28;19910;-89
2021/11/08 17:44:57;;;;;;;;;;;11.70;99.90;;;;;;4973157;28;19916;-88
2021/11/08 17:47:25;;;;;;;;;;;11.70;99.90;;;;;;4974617;28;20077;-88
2021/11/08 17:49:58;;;;;;;;;;;11.70;99.90;;;;;;4991418;28;19976;-92
2021/11/08 17:52:27;;;;;;;;;;;11.60;99.90;;;;;;4974152;28;20424;-92
2021/11/08 17:54:53;;;;;;;;;;;11.60;99.90;;;;;;4993399;28;19918;-91
2021/11/08 17:57:21;;;;;;;;;;;11.60;99.90;;;;;;4987615;28;19913;-92
2021/11/08 18:00:12;;;;;;;;;;;11.50;99.90;;;;;;4986834;28;19922;-91
2021/11/08 18:02:48;;;;;;;;;;;11.50;99.90;;;;;;4990335;28;19911;-91
2021/11/08 18:05:15;;;;;;;;;;;11.50;99.90;;;;;;4984336;28;19948;-91
2021/11/08 18:07:44;;;;;;;;;;;11.40;99.90;;;;;;4998148;28;19984;-91
2021/11/08 18:10:10;;;;;;;;;;;11.50;99.90;;;;;;4988608;28;20000;-91
2021/11/08 18:15:28;;;;;;;;;;;11.40;99.90;;;;;;4974101;28;19953;-91
2021/11/08 18:17:58;;;;;;;;;;;11.30;99.90;;;;;;4989379;28;19976;-91
2021/11/08 18:28:48;;;;;;;;;;;11.20;99.90;;;;;;4950795;28;20394;-91
2021/11/08 18:31:19;;;;;;;;;;;11.20;99.90;;;;;;4975854;28;19911;-92
2021/11/08 18:33:49;;;;;;;;;;;11.10;99.90;;;;;;4964792;28;19970;-91
2021/11/08 18:36:18;;;;;;;;;;;11.00;99.90;;;;;;4975671;28;19911;-91
2021/11/08 18:38:56;;;;;;;;;;;;;;;;;;;;;
2021/11/08 18:41:26;;;;;;;;;;;11.00;99.90;;;;;;4964965;29;19937;-91
2021/11/08 18:43:56;;;;;;;;;;;11.00;99.90;;;;;;4980719;28;19973;-92